sensor_id;sensor_type;location;lat;lon;timestamp;P1;durP1;ratioP1;P2;durP2;ratioP2
54745;SDS011;40640;48.130;11.356;2022-12-18T00:01:45;45.60;;;17.58;;
54745;SDS011;40640;48.130;11.356;2022-12-18T00:05:47;52.97;;;18.20;;
54745;SDS011;40640;48.130;11.356;2022-12-18T00:09:50;46.22;;;17.90;;
54745;SDS011;40640;48.130;11.356;2022-12-18T00:13:55;41.67;;;16.70;;
54745;SDS011;40640;48.130;11.356;2022-12-18T00:18:00;47.22;;;18.67;;
54745;SDS011;40640;48.130;11.356;2022-12-18T00:22:03;52.88;;;20.95;;
54745;SDS011;40640;48.130;11.356;2022-12-18T00:26:07;52.88;;;19.50;;
54745;SDS011;40640;48.130;11.356;2022-12-18T00:34:16;61.55;;;23.85;;
54745;SDS011;40640;48.130;11.356;2022-12-18T00:38:19;51.85;;;18.50;;
54745;SDS011;40640;48.130;11.356;2022-12-18T00:42:24;50.13;;;17.90;;
54745;SDS011;40640;48.130;11.356;2022-12-18T00:46:47;55.72;;;20.35;;
54745;SDS011;40640;48.130;11.356;2022-12-18T00:50:50;62.83;;;22.90;;
54745;SDS011;40640;48.130;11.356;2022-12-18T00:54:53;69.20;;;21.98;;
54745;SDS011;40640;48.130;11.356;2022-12-18T00:58:56;64.40;;;21.33;;
54745;SDS011;40640;48.130;11.356;2022-12-18T01:03:00;74.70;;;22.83;;
54745;SDS011;40640;48.130;11.356;2022-12-18T01:07:03;67.00;;;21.80;;
54745;SDS011;40640;48.130;11.356;2022-12-18T01:11:08;52.38;;;19.67;;
54745;SDS011;40640;48.130;11.356;2022-12-18T01:15:13;58.90;;;20.38;;
54745;SDS011;40640;48.130;11.356;2022-12-18T01:19:18;54.10;;;20.45;;
54745;SDS011;40640;48.130;11.356;2022-12-18T01:23:21;60.90;;;20.33;;
54745;SDS011;40640;48.130;11.356;2022-12-18T01:27:23;63.42;;;21.00;;
54745;SDS011;40640;48.130;11.356;2022-12-18T01:31:27;62.50;;;19.77;;
54745;SDS011;40640;48.130;11.356;2022-12-18T01:35:33;50.15;;;19.58;;
54745;SDS011;40640;48.130;11.356;2022-12-18T01:39:41;50.08;;;17.40;;
54745;SDS011;40640;48.130;11.356;2022-12-18T01:43:46;61.85;;;19.15;;
54745;SDS011;40640;48.130;11.356;2022-12-18T01:47:53;62.60;;;20.83;;
54745;SDS011;40640;48.130;11.356;2022-12-18T01:56:02;48.92;;;16.98;;
54745;SDS011;40640;48.130;11.356;2022-12-18T02:00:07;51.35;;;16.70;;
54745;SDS011;40640;48.130;11.356;2022-12-18T02:04:19;54.13;;;17.10;;
54745;SDS011;40640;48.130;11.356;2022-12-18T02:08:26;47.47;;;14.85;;
54745;SDS011;40640;48.130;11.356;2022-12-18T02:12:38;50.22;;;18.33;;
54745;SDS011;40640;48.130;11.356;2022-12-18T02:16:48;48.60;;;16.58;;
54745;SDS011;40640;48.130;11.356;2022-12-18T02:20:57;59.58;;;19.60;;
54745;SDS011;40640;48.130;11.356;2022-12-18T02:25:13;58.10;;;18.50;;
54745;SDS011;40640;48.130;11.356;2022-12-18T02:29:27;46.00;;;16.00;;
54745;SDS011;40640;48.130;11.356;2022-12-18T02:33:35;49.13;;;17.63;;
54745;SDS011;40640;48.130;11.356;2022-12-18T02:37:39;62.05;;;17.90;;
54745;SDS011;40640;48.130;11.356;2022-12-18T02:41:44;57.43;;;19.53;;
54745;SDS011;40640;48.130;11.356;2022-12-18T02:45:49;64.07;;;21.13;;
54745;SDS011;40640;48.130;11.356;2022-12-18T02:49:57;56.30;;;17.55;;
54745;SDS011;40640;48.130;11.356;2022-12-18T02:54:10;52.57;;;17.77;;
54745;SDS011;40640;48.130;11.356;2022-12-18T02:58:26;46.30;;;16.40;;
54745;SDS011;40640;48.130;11.356;2022-12-18T03:02:44;55.75;;;19.35;;
54745;SDS011;40640;48.130;11.356;2022-12-18T03:06:53;59.40;;;20.13;;
54745;SDS011;40640;48.130;11.356;2022-12-18T03:11:00;59.30;;;18.85;;
54745;SDS011;40640;48.130;11.356;2022-12-18T03:15:08;55.38;;;18.90;;
54745;SDS011;40640;48.130;11.356;2022-12-18T03:19:21;65.75;;;18.63;;
54745;SDS011;40640;48.130;11.356;2022-12-18T03:23:33;57.60;;;20.05;;
54745;SDS011;40640;48.130;11.356;2022-12-18T03:27:43;63.92;;;19.50;;
54745;SDS011;40640;48.130;11.356;2022-12-18T03:31:51;65.10;;;18.77;;
54745;SDS011;40640;48.130;11.356;2022-12-18T03:36:01;62.13;;;19.50;;
54745;SDS011;40640;48.130;11.356;2022-12-18T03:40:06;63.08;;;20.75;;
54745;SDS011;40640;48.130;11.356;2022-12-18T03:44:12;64.35;;;19.25;;
54745;SDS011;40640;48.130;11.356;2022-12-18T03:48:24;58.95;;;19.13;;
54745;SDS011;40640;48.130;11.356;2022-12-18T03:52:38;69.53;;;20.55;;
54745;SDS011;40640;48.130;11.356;2022-12-18T03:56:48;71.78;;;19.55;;
54745;SDS011;40640;48.130;11.356;2022-12-18T04:00:56;64.28;;;20.58;;
54745;SDS011;40640;48.130;11.356;2022-12-18T04:05:04;67.43;;;20.60;;
54745;SDS011;40640;48.130;11.356;2022-12-18T04:09:13;66.68;;;20.08;;
54745;SDS011;40640;48.130;11.356;2022-12-18T04:13:23;54.83;;;19.60;;
54745;SDS011;40640;48.130;11.356;2022-12-18T04:17:27;60.15;;;19.77;;
54745;SDS011;40640;48.130;11.356;2022-12-18T04:21:31;78.13;;;23.63;;
54745;SDS011;40640;48.130;11.356;2022-12-18T04:25:35;68.57;;;22.67;;
54745;SDS011;40640;48.130;11.356;2022-12-18T04:29:45;67.45;;;21.15;;
54745;SDS011;40640;48.130;11.356;2022-12-18T04:33:49;72.07;;;21.35;;
54745;SDS011;40640;48.130;11.356;2022-12-18T04:37:52;69.05;;;21.40;;
54745;SDS011;40640;48.130;11.356;2022-12-18T04:41:56;74.20;;;22.83;;
54745;SDS011;40640;48.130;11.356;2022-12-18T04:46:03;61.95;;;22.08;;
54745;SDS011;40640;48.130;11.356;2022-12-18T04:50:06;66.15;;;21.92;;
54745;SDS011;40640;48.130;11.356;2022-12-18T04:54:10;68.10;;;20.33;;
54745;SDS011;40640;48.130;11.356;2022-12-18T04:58:14;65.90;;;21.25;;
54745;SDS011;40640;48.130;11.356;2022-12-18T05:02:17;68.93;;;23.10;;
54745;SDS011;40640;48.130;11.356;2022-12-18T05:06:20;67.10;;;22.15;;
54745;SDS011;40640;48.130;11.356;2022-12-18T05:10:22;66.97;;;22.27;;
54745;SDS011;40640;48.130;11.356;2022-12-18T05:14:27;64.78;;;20.35;;
54745;SDS011;40640;48.130;11.356;2022-12-18T05:18:30;60.60;;;19.80;;
54745;SDS011;40640;48.130;11.356;2022-12-18T05:22:33;69.28;;;21.65;;
54745;SDS011;40640;48.130;11.356;2022-12-18T05:26:36;66.78;;;20.85;;
54745;SDS011;40640;48.130;11.356;2022-12-18T05:30:41;68.40;;;22.52;;
54745;SDS011;40640;48.130;11.356;2022-12-18T05:34:43;69.13;;;23.08;;
54745;SDS011;40640;48.130;11.356;2022-12-18T05:38:46;74.05;;;22.50;;
54745;SDS011;40640;48.130;11.356;2022-12-18T05:42:49;70.07;;;20.58;;
54745;SDS011;40640;48.130;11.356;2022-12-18T05:46:53;65.53;;;22.10;;
54745;SDS011;40640;48.130;11.356;2022-12-18T05:51:02;64.18;;;20.67;;
54745;SDS011;40640;48.130;11.356;2022-12-18T05:55:06;64.57;;;21.75;;
54745;SDS011;40640;48.130;11.356;2022-12-18T05:59:09;57.60;;;19.00;;
54745;SDS011;40640;48.130;11.356;2022-12-18T06:03:13;65.43;;;22.30;;
54745;SDS011;40640;48.130;11.356;2022-12-18T06:07:16;61.95;;;21.67;;
54745;SDS011;40640;48.130;11.356;2022-12-18T06:11:20;63.97;;;19.25;;
54745;SDS011;40640;48.130;11.356;2022-12-18T06:15:25;60.70;;;19.38;;
54745;SDS011;40640;48.130;11.356;2022-12-18T06:19:30;60.22;;;19.10;;
54745;SDS011;40640;48.130;11.356;2022-12-18T06:23:33;63.72;;;20.80;;
54745;SDS011;40640;48.130;11.356;2022-12-18T06:27:36;56.95;;;18.88;;
54745;SDS011;40640;48.130;11.356;2022-12-18T06:31:39;58.65;;;20.02;;
54745;SDS011;40640;48.130;11.356;2022-12-18T06:35:43;59.25;;;19.80;;
54745;SDS011;40640;48.130;11.356;2022-12-18T06:39:46;58.15;;;18.52;;
54745;SDS011;40640;48.130;11.356;2022-12-18T06:43:49;52.70;;;17.20;;
54745;SDS011;40640;48.130;11.356;2022-12-18T06:47:58;56.20;;;18.65;;
54745;SDS011;40640;48.130;11.356;2022-12-18T06:52:02;62.38;;;21.33;;
54745;SDS011;40640;48.130;11.356;2022-12-18T06:56:06;65.00;;;20.27;;
54745;SDS011;40640;48.130;11.356;2022-12-18T07:00:11;71.38;;;21.40;;
54745;SDS011;40640;48.130;11.356;2022-12-18T07:04:15;54.95;;;17.92;;
54745;SDS011;40640;48.130;11.356;2022-12-18T07:08:19;57.17;;;19.88;;
54745;SDS011;40640;48.130;11.356;2022-12-18T07:12:22;57.95;;;20.88;;
54745;SDS011;40640;48.130;11.356;2022-12-18T07:16:25;61.60;;;23.25;;
54745;SDS011;40640;48.130;11.356;2022-12-18T07:20:29;55.35;;;18.85;;
54745;SDS011;40640;48.130;11.356;2022-12-18T07:24:33;51.28;;;17.67;;
54745;SDS011;40640;48.130;11.356;2022-12-18T07:28:37;56.00;;;17.40;;
54745;SDS011;40640;48.130;11.356;2022-12-18T07:32:41;55.78;;;19.92;;
54745;SDS011;40640;48.130;11.356;2022-12-18T07:36:43;57.78;;;19.48;;
54745;SDS011;40640;48.130;11.356;2022-12-18T07:40:47;49.67;;;17.10;;
54745;SDS011;40640;48.130;11.356;2022-12-18T07:44:50;60.35;;;18.65;;
54745;SDS011;40640;48.130;11.356;2022-12-18T07:48:53;55.90;;;19.38;;
54745;SDS011;40640;48.130;11.356;2022-12-18T07:52:56;53.30;;;19.45;;
54745;SDS011;40640;48.130;11.356;2022-12-18T07:57:00;59.92;;;20.17;;
54745;SDS011;40640;48.130;11.356;2022-12-18T08:01:03;58.35;;;20.25;;
54745;SDS011;40640;48.130;11.356;2022-12-18T08:05:08;50.47;;;18.85;;
54745;SDS011;40640;48.130;11.356;2022-12-18T08:09:11;50.13;;;19.02;;
54745;SDS011;40640;48.130;11.356;2022-12-18T08:13:15;52.88;;;19.13;;
54745;SDS011;40640;48.130;11.356;2022-12-18T08:17:18;58.75;;;23.42;;
54745;SDS011;40640;48.130;11.356;2022-12-18T08:21:22;51.08;;;19.45;;
54745;SDS011;40640;48.130;11.356;2022-12-18T08:25:27;57.60;;;20.00;;
54745;SDS011;40640;48.130;11.356;2022-12-18T08:29:31;51.33;;;20.23;;
54745;SDS011;40640;48.130;11.356;2022-12-18T08:33:35;52.40;;;19.92;;
54745;SDS011;40640;48.130;11.356;2022-12-18T08:37:39;47.70;;;18.57;;
54745;SDS011;40640;48.130;11.356;2022-12-18T08:41:42;53.53;;;18.58;;
54745;SDS011;40640;48.130;11.356;2022-12-18T08:46:12;46.15;;;18.27;;
54745;SDS011;40640;48.130;11.356;2022-12-18T08:50:15;49.25;;;18.48;;
54745;SDS011;40640;48.130;11.356;2022-12-18T08:54:18;55.00;;;19.05;;
54745;SDS011;40640;48.130;11.356;2022-12-18T08:58:21;47.17;;;19.35;;
54745;SDS011;40640;48.130;11.356;2022-12-18T09:02:26;55.45;;;20.17;;
54745;SDS011;40640;48.130;11.356;2022-12-18T09:06:29;50.72;;;17.73;;
54745;SDS011;40640;48.130;11.356;2022-12-18T09:10:31;49.85;;;19.63;;
54745;SDS011;40640;48.130;11.356;2022-12-18T09:14:42;44.60;;;18.20;;
54745;SDS011;40640;48.130;11.356;2022-12-18T09:18:46;48.47;;;18.02;;
54745;SDS011;40640;48.130;11.356;2022-12-18T09:22:49;51.63;;;18.88;;
54745;SDS011;40640;48.130;11.356;2022-12-18T09:26:52;44.08;;;17.85;;
54745;SDS011;40640;48.130;11.356;2022-12-18T09:30:58;45.75;;;17.55;;
54745;SDS011;40640;48.130;11.356;2022-12-18T09:35:03;45.67;;;17.13;;
54745;SDS011;40640;48.130;11.356;2022-12-18T09:39:06;47.92;;;19.50;;
54745;SDS011;40640;48.130;11.356;2022-12-18T09:43:11;50.90;;;17.40;;
54745;SDS011;40640;48.130;11.356;2022-12-18T09:47:18;51.90;;;19.02;;
54745;SDS011;40640;48.130;11.356;2022-12-18T09:51:27;49.35;;;19.25;;
54745;SDS011;40640;48.130;11.356;2022-12-18T09:55:33;50.75;;;18.60;;
54745;SDS011;40640;48.130;11.356;2022-12-18T09:59:39;46.95;;;17.58;;
54745;SDS011;40640;48.130;11.356;2022-12-18T10:03:43;53.30;;;21.55;;
54745;SDS011;40640;48.130;11.356;2022-12-18T10:07:49;51.88;;;18.88;;
54745;SDS011;40640;48.130;11.356;2022-12-18T10:12:00;46.88;;;18.15;;
54745;SDS011;40640;48.130;11.356;2022-12-18T10:16:11;42.63;;;17.67;;
54745;SDS011;40640;48.130;11.356;2022-12-18T10:20:20;48.80;;;18.67;;
54745;SDS011;40640;48.130;11.356;2022-12-18T10:24:32;42.47;;;16.98;;
54745;SDS011;40640;48.130;11.356;2022-12-18T10:28:40;45.88;;;19.15;;
54745;SDS011;40640;48.130;11.356;2022-12-18T10:32:44;46.60;;;19.65;;
54745;SDS011;40640;48.130;11.356;2022-12-18T10:36:47;44.63;;;17.50;;
54745;SDS011;40640;48.130;11.356;2022-12-18T10:40:52;42.60;;;16.35;;
54745;SDS011;40640;48.130;11.356;2022-12-18T10:45:00;42.58;;;16.20;;
54745;SDS011;40640;48.130;11.356;2022-12-18T10:49:05;35.45;;;15.55;;
54745;SDS011;40640;48.130;11.356;2022-12-18T10:53:22;39.80;;;16.23;;
54745;SDS011;40640;48.130;11.356;2022-12-18T10:57:32;47.50;;;17.48;;
54745;SDS011;40640;48.130;11.356;2022-12-18T11:01:47;46.33;;;17.17;;
54745;SDS011;40640;48.130;11.356;2022-12-18T11:05:52;44.42;;;18.58;;
54745;SDS011;40640;48.130;11.356;2022-12-18T11:10:05;42.78;;;17.85;;
54745;SDS011;40640;48.130;11.356;2022-12-18T11:14:20;42.20;;;18.00;;
54745;SDS011;40640;48.130;11.356;2022-12-18T11:18:26;44.35;;;17.27;;
54745;SDS011;40640;48.130;11.356;2022-12-18T11:22:31;47.00;;;17.55;;
54745;SDS011;40640;48.130;11.356;2022-12-18T11:26:35;42.17;;;17.70;;
54745;SDS011;40640;48.130;11.356;2022-12-18T11:30:40;46.38;;;18.95;;
54745;SDS011;40640;48.130;11.356;2022-12-18T11:34:44;49.75;;;18.55;;
54745;SDS011;40640;48.130;11.356;2022-12-18T11:38:56;41.22;;;17.25;;
54745;SDS011;40640;48.130;11.356;2022-12-18T11:43:06;42.47;;;18.27;;
54745;SDS011;40640;48.130;11.356;2022-12-18T11:47:21;37.85;;;15.70;;
54745;SDS011;40640;48.130;11.356;2022-12-18T11:51:31;45.00;;;18.50;;
54745;SDS011;40640;48.130;11.356;2022-12-18T11:55:47;41.53;;;16.75;;
54745;SDS011;40640;48.130;11.356;2022-12-18T11:59:55;42.47;;;17.15;;
54745;SDS011;40640;48.130;11.356;2022-12-18T12:04:17;41.85;;;17.13;;
54745;SDS011;40640;48.130;11.356;2022-12-18T12:08:42;42.97;;;18.20;;
54745;SDS011;40640;48.130;11.356;2022-12-18T12:12:59;45.55;;;17.35;;
54745;SDS011;40640;48.130;11.356;2022-12-18T12:17:21;44.55;;;18.27;;
54745;SDS011;40640;48.130;11.356;2022-12-18T12:21:34;38.23;;;16.70;;
54745;SDS011;40640;48.130;11.356;2022-12-18T12:25:43;44.25;;;16.00;;
54745;SDS011;40640;48.130;11.356;2022-12-18T12:29:53;41.60;;;17.58;;
54745;SDS011;40640;48.130;11.356;2022-12-18T12:34:05;38.95;;;15.68;;
54745;SDS011;40640;48.130;11.356;2022-12-18T12:38:16;37.83;;;16.02;;
54745;SDS011;40640;48.130;11.356;2022-12-18T12:42:24;41.60;;;16.58;;
54745;SDS011;40640;48.130;11.356;2022-12-18T12:46:51;40.85;;;16.77;;
54745;SDS011;40640;48.130;11.356;2022-12-18T12:55:03;45.08;;;16.65;;
54745;SDS011;40640;48.130;11.356;2022-12-18T12:59:15;43.55;;;16.88;;
54745;SDS011;40640;48.130;11.356;2022-12-18T13:03:28;43.85;;;16.60;;
54745;SDS011;40640;48.130;11.356;2022-12-18T13:07:39;51.00;;;18.70;;
54745;SDS011;40640;48.130;11.356;2022-12-18T13:11:49;53.28;;;18.95;;
54745;SDS011;40640;48.130;11.356;2022-12-18T13:16:10;41.17;;;17.92;;
54745;SDS011;40640;48.130;11.356;2022-12-18T13:20:13;43.50;;;16.60;;
54745;SDS011;40640;48.130;11.356;2022-12-18T13:24:22;43.20;;;18.20;;
54745;SDS011;40640;48.130;11.356;2022-12-18T13:33:02;44.08;;;15.88;;
54745;SDS011;40640;48.130;11.356;2022-12-18T13:38:19;41.95;;;16.48;;
54745;SDS011;40640;48.130;11.356;2022-12-18T13:42:39;40.65;;;15.90;;
54745;SDS011;40640;48.130;11.356;2022-12-18T13:47:01;47.33;;;16.97;;
54745;SDS011;40640;48.130;11.356;2022-12-18T13:51:06;50.40;;;17.92;;
54745;SDS011;40640;48.130;11.356;2022-12-18T13:55:15;42.90;;;16.77;;
54745;SDS011;40640;48.130;11.356;2022-12-18T13:59:22;45.70;;;17.02;;
54745;SDS011;40640;48.130;11.356;2022-12-18T14:03:28;45.47;;;17.50;;
54745;SDS011;40640;48.130;11.356;2022-12-18T14:07:32;45.53;;;17.02;;
54745;SDS011;40640;48.130;11.356;2022-12-18T14:11:46;36.38;;;15.82;;
54745;SDS011;40640;48.130;11.356;2022-12-18T14:15:50;47.22;;;16.75;;
54745;SDS011;40640;48.130;11.356;2022-12-18T14:19:54;43.03;;;16.90;;
54745;SDS011;40640;48.130;11.356;2022-12-18T14:24:06;44.75;;;16.25;;
54745;SDS011;40640;48.130;11.356;2022-12-18T14:28:20;46.05;;;16.83;;
54745;SDS011;40640;48.130;11.356;2022-12-18T14:32:23;41.38;;;16.02;;
54745;SDS011;40640;48.130;11.356;2022-12-18T14:36:28;43.10;;;16.88;;
54745;SDS011;40640;48.130;11.356;2022-12-18T14:40:31;45.22;;;17.25;;
54745;SDS011;40640;48.130;11.356;2022-12-18T14:44:34;40.05;;;15.88;;
54745;SDS011;40640;48.130;11.356;2022-12-18T14:48:56;40.45;;;15.82;;
54745;SDS011;40640;48.130;11.356;2022-12-18T14:53:01;45.00;;;15.93;;
54745;SDS011;40640;48.130;11.356;2022-12-18T14:57:05;48.33;;;18.17;;
54745;SDS011;40640;48.130;11.356;2022-12-18T15:01:22;40.28;;;15.05;;
54745;SDS011;40640;48.130;11.356;2022-12-18T15:05:28;43.30;;;16.17;;
54745;SDS011;40640;48.130;11.356;2022-12-18T15:09:33;38.15;;;15.50;;
54745;SDS011;40640;48.130;11.356;2022-12-18T15:13:36;44.80;;;15.48;;
54745;SDS011;40640;48.130;11.356;2022-12-18T15:17:39;45.83;;;15.65;;
54745;SDS011;40640;48.130;11.356;2022-12-18T15:21:42;49.13;;;16.70;;
54745;SDS011;40640;48.130;11.356;2022-12-18T15:25:47;50.55;;;17.50;;
54745;SDS011;40640;48.130;11.356;2022-12-18T15:30:00;43.97;;;17.20;;
54745;SDS011;40640;48.130;11.356;2022-12-18T15:34:19;44.47;;;16.08;;
54745;SDS011;40640;48.130;11.356;2022-12-18T15:38:23;53.33;;;18.73;;
54745;SDS011;40640;48.130;11.356;2022-12-18T15:42:28;52.00;;;19.05;;
54745;SDS011;40640;48.130;11.356;2022-12-18T15:46:49;58.53;;;19.98;;
54745;SDS011;40640;48.130;11.356;2022-12-18T15:50:52;68.13;;;22.60;;
54745;SDS011;40640;48.130;11.356;2022-12-18T15:54:58;52.45;;;20.10;;
54745;SDS011;40640;48.130;11.356;2022-12-18T15:59:20;52.67;;;17.15;;
54745;SDS011;40640;48.130;11.356;2022-12-18T16:03:23;57.13;;;19.57;;
54745;SDS011;40640;48.130;11.356;2022-12-18T16:07:26;58.53;;;19.33;;
54745;SDS011;40640;48.130;11.356;2022-12-18T16:11:32;58.03;;;19.80;;
54745;SDS011;40640;48.130;11.356;2022-12-18T16:15:44;59.42;;;18.50;;
54745;SDS011;40640;48.130;11.356;2022-12-18T16:19:47;52.40;;;17.90;;
54745;SDS011;40640;48.130;11.356;2022-12-18T16:23:50;60.55;;;19.15;;
54745;SDS011;40640;48.130;11.356;2022-12-18T16:27:54;58.83;;;20.17;;
54745;SDS011;40640;48.130;11.356;2022-12-18T16:31:59;67.03;;;19.88;;
54745;SDS011;40640;48.130;11.356;2022-12-18T16:36:03;59.63;;;20.57;;
54745;SDS011;40640;48.130;11.356;2022-12-18T16:40:06;61.58;;;18.85;;
54745;SDS011;40640;48.130;11.356;2022-12-18T16:44:11;42.40;;;13.90;;
54745;SDS011;40640;48.130;11.356;2022-12-18T16:48:15;66.32;;;19.88;;
54745;SDS011;40640;48.130;11.356;2022-12-18T16:52:17;52.13;;;18.05;;
54745;SDS011;40640;48.130;11.356;2022-12-18T16:56:20;53.63;;;18.45;;
54745;SDS011;40640;48.130;11.356;2022-12-18T17:00:23;51.78;;;17.38;;
54745;SDS011;40640;48.130;11.356;2022-12-18T17:04:28;52.35;;;17.15;;
54745;SDS011;40640;48.130;11.356;2022-12-18T17:08:30;63.15;;;19.83;;
54745;SDS011;40640;48.130;11.356;2022-12-18T17:12:33;56.42;;;18.90;;
54745;SDS011;40640;48.130;11.356;2022-12-18T17:16:37;62.28;;;18.90;;
54745;SDS011;40640;48.130;11.356;2022-12-18T17:20:41;61.45;;;21.38;;
54745;SDS011;40640;48.130;11.356;2022-12-18T17:24:45;60.72;;;20.52;;
54745;SDS011;40640;48.130;11.356;2022-12-18T17:28:48;46.53;;;18.80;;
54745;SDS011;40640;48.130;11.356;2022-12-18T17:32:51;60.15;;;18.83;;
54745;SDS011;40640;48.130;11.356;2022-12-18T17:36:55;62.60;;;20.02;;
54745;SDS011;40640;48.130;11.356;2022-12-18T17:40:59;61.20;;;20.20;;
54745;SDS011;40640;48.130;11.356;2022-12-18T17:45:02;63.92;;;21.38;;
54745;SDS011;40640;48.130;11.356;2022-12-18T17:49:08;56.15;;;18.95;;
54745;SDS011;40640;48.130;11.356;2022-12-18T17:53:13;47.30;;;17.20;;
54745;SDS011;40640;48.130;11.356;2022-12-18T17:57:17;48.22;;;17.42;;
54745;SDS011;40640;48.130;11.356;2022-12-18T18:01:20;62.85;;;20.27;;
54745;SDS011;40640;48.130;11.356;2022-12-18T18:05:25;65.80;;;20.13;;
54745;SDS011;40640;48.130;11.356;2022-12-18T18:09:29;59.28;;;19.25;;
54745;SDS011;40640;48.130;11.356;2022-12-18T18:13:32;56.42;;;19.48;;
54745;SDS011;40640;48.130;11.356;2022-12-18T18:17:53;53.75;;;16.85;;
54745;SDS011;40640;48.130;11.356;2022-12-18T18:21:56;63.22;;;18.00;;
54745;SDS011;40640;48.130;11.356;2022-12-18T18:26:02;55.55;;;19.38;;
54745;SDS011;40640;48.130;11.356;2022-12-18T18:30:06;67.15;;;19.70;;
54745;SDS011;40640;48.130;11.356;2022-12-18T18:34:13;63.50;;;21.13;;
54745;SDS011;40640;48.130;11.356;2022-12-18T18:38:16;62.50;;;19.52;;
54745;SDS011;40640;48.130;11.356;2022-12-18T18:42:21;71.40;;;20.40;;
54745;SDS011;40640;48.130;11.356;2022-12-18T18:46:24;52.70;;;17.27;;
54745;SDS011;40640;48.130;11.356;2022-12-18T18:50:27;60.42;;;19.17;;
54745;SDS011;40640;48.130;11.356;2022-12-18T18:54:30;69.68;;;22.30;;
54745;SDS011;40640;48.130;11.356;2022-12-18T18:58:34;58.67;;;19.98;;
54745;SDS011;40640;48.130;11.356;2022-12-18T19:02:38;64.03;;;20.83;;
54745;SDS011;40640;48.130;11.356;2022-12-18T19:06:41;81.40;;;22.00;;
54745;SDS011;40640;48.130;11.356;2022-12-18T19:10:49;63.03;;;19.20;;
54745;SDS011;40640;48.130;11.356;2022-12-18T19:14:59;53.05;;;18.40;;
54745;SDS011;40640;48.130;11.356;2022-12-18T19:19:02;66.05;;;21.77;;
54745;SDS011;40640;48.130;11.356;2022-12-18T19:23:05;83.28;;;22.95;;
54745;SDS011;40640;48.130;11.356;2022-12-18T19:27:08;80.60;;;23.33;;
54745;SDS011;40640;48.130;11.356;2022-12-18T19:31:13;65.45;;;20.65;;
54745;SDS011;40640;48.130;11.356;2022-12-18T19:35:27;64.82;;;21.10;;
54745;SDS011;40640;48.130;11.356;2022-12-18T19:39:30;67.00;;;19.70;;
54745;SDS011;40640;48.130;11.356;2022-12-18T19:43:33;63.88;;;20.05;;
54745;SDS011;40640;48.130;11.356;2022-12-18T19:47:39;65.78;;;19.20;;
54745;SDS011;40640;48.130;11.356;2022-12-18T19:51:42;66.53;;;20.50;;
54745;SDS011;40640;48.130;11.356;2022-12-18T19:55:45;68.97;;;20.60;;
54745;SDS011;40640;48.130;11.356;2022-12-18T19:59:49;64.55;;;20.48;;
54745;SDS011;40640;48.130;11.356;2022-12-18T20:03:53;145.32;;;31.00;;
54745;SDS011;40640;48.130;11.356;2022-12-18T20:07:57;77.82;;;25.25;;
54745;SDS011;40640;48.130;11.356;2022-12-18T20:12:01;65.78;;;20.73;;
54745;SDS011;40640;48.130;11.356;2022-12-18T20:16:04;73.53;;;21.30;;
54745;SDS011;40640;48.130;11.356;2022-12-18T20:20:09;72.22;;;20.55;;
54745;SDS011;40640;48.130;11.356;2022-12-18T20:24:13;69.95;;;20.95;;
54745;SDS011;40640;48.130;11.356;2022-12-18T20:28:16;63.00;;;19.77;;
54745;SDS011;40640;48.130;11.356;2022-12-18T20:32:19;63.40;;;19.77;;
54745;SDS011;40640;48.130;11.356;2022-12-18T20:36:23;68.32;;;19.02;;
54745;SDS011;40640;48.130;11.356;2022-12-18T20:40:29;62.35;;;20.13;;
54745;SDS011;40640;48.130;11.356;2022-12-18T20:44:32;65.13;;;19.25;;
54745;SDS011;40640;48.130;11.356;2022-12-18T20:48:35;65.63;;;20.20;;
54745;SDS011;40640;48.130;11.356;2022-12-18T20:52:39;58.45;;;19.48;;
54745;SDS011;40640;48.130;11.356;2022-12-18T20:56:42;65.78;;;20.88;;
54745;SDS011;40640;48.130;11.356;2022-12-18T21:00:45;66.47;;;21.80;;
54745;SDS011;40640;48.130;11.356;2022-12-18T21:04:48;68.50;;;20.60;;
54745;SDS011;40640;48.130;11.356;2022-12-18T21:08:52;70.82;;;21.73;;
54745;SDS011;40640;48.130;11.356;2022-12-18T21:12:55;64.13;;;21.13;;
54745;SDS011;40640;48.130;11.356;2022-12-18T21:17:04;76.20;;;20.90;;
54745;SDS011;40640;48.130;11.356;2022-12-18T21:21:07;60.75;;;19.27;;
54745;SDS011;40640;48.130;11.356;2022-12-18T21:25:11;54.38;;;20.40;;
54745;SDS011;40640;48.130;11.356;2022-12-18T21:29:15;64.63;;;20.02;;
54745;SDS011;40640;48.130;11.356;2022-12-18T21:33:20;67.82;;;20.23;;
54745;SDS011;40640;48.130;11.356;2022-12-18T21:37:23;65.95;;;21.73;;
54745;SDS011;40640;48.130;11.356;2022-12-18T21:41:27;69.45;;;21.98;;
54745;SDS011;40640;48.130;11.356;2022-12-18T21:45:47;68.07;;;21.05;;
54745;SDS011;40640;48.130;11.356;2022-12-18T21:49:50;81.22;;;23.88;;
54745;SDS011;40640;48.130;11.356;2022-12-18T21:53:53;77.53;;;22.77;;
54745;SDS011;40640;48.130;11.356;2022-12-18T21:57:57;79.07;;;22.73;;
54745;SDS011;40640;48.130;11.356;2022-12-18T22:06:24;78.60;;;23.45;;
54745;SDS011;40640;48.130;11.356;2022-12-18T22:10:27;77.57;;;22.83;;
54745;SDS011;40640;48.130;11.356;2022-12-18T22:14:31;75.70;;;22.77;;
54745;SDS011;40640;48.130;11.356;2022-12-18T22:18:34;75.35;;;23.05;;
54745;SDS011;40640;48.130;11.356;2022-12-18T22:22:37;79.13;;;23.95;;
54745;SDS011;40640;48.130;11.356;2022-12-18T22:26:40;82.07;;;24.73;;
54745;SDS011;40640;48.130;11.356;2022-12-18T22:30:45;87.63;;;27.67;;
54745;SDS011;40640;48.130;11.356;2022-12-18T22:34:49;72.50;;;21.83;;
54745;SDS011;40640;48.130;11.356;2022-12-18T22:38:52;73.07;;;23.50;;
54745;SDS011;40640;48.130;11.356;2022-12-18T22:42:55;71.18;;;22.60;;
54745;SDS011;40640;48.130;11.356;2022-12-18T22:46:59;78.57;;;23.73;;
54745;SDS011;40640;48.130;11.356;2022-12-18T22:51:07;70.05;;;22.50;;
54745;SDS011;40640;48.130;11.356;2022-12-18T22:55:13;72.85;;;24.27;;
54745;SDS011;40640;48.130;11.356;2022-12-18T22:59:16;78.72;;;23.30;;
54745;SDS011;40640;48.130;11.356;2022-12-18T23:03:22;74.45;;;23.77;;
54745;SDS011;40640;48.130;11.356;2022-12-18T23:07:25;75.63;;;23.95;;
54745;SDS011;40640;48.130;11.356;2022-12-18T23:11:27;73.30;;;23.55;;
54745;SDS011;40640;48.130;11.356;2022-12-18T23:15:30;78.50;;;26.23;;
54745;SDS011;40640;48.130;11.356;2022-12-18T23:19:36;81.78;;;24.48;;
54745;SDS011;40640;48.130;11.356;2022-12-18T23:23:44;66.05;;;21.13;;
54745;SDS011;40640;48.130;11.356;2022-12-18T23:27:47;71.03;;;22.77;;
54745;SDS011;40640;48.130;11.356;2022-12-18T23:31:50;58.72;;;20.95;;
54745;SDS011;40640;48.130;11.356;2022-12-18T23:35:57;60.70;;;18.63;;
54745;SDS011;40640;48.130;11.356;2022-12-18T23:40:01;60.67;;;19.40;;
54745;SDS011;40640;48.130;11.356;2022-12-18T23:44:04;60.70;;;19.20;;
54745;SDS011;40640;48.130;11.356;2022-12-18T23:48:07;67.60;;;20.80;;
54745;SDS011;40640;48.130;11.356;2022-12-18T23:52:11;56.65;;;19.95;;
54745;SDS011;40640;48.130;11.356;2022-12-18T23:56:14;66.07;;;20.50;;
